Time;durP1;ratioP1;P1;durP2;ratioP2;P2;SDS_P1;SDS_P2;PMS_P1;PMS_P2;Temp;Humidity;BMP_temperature;BMP_pressure;BME280_temperature;BME280_humidity;BME280_pressure;Samples;Min_cycle;Max_cycle;Signal;HPM_P1;HPM_P2
2023/08/11 00:00:09;;;;;;;4.20;1.95;;;17.40;99.90;;;;;;5084364;28;20505;-82
2023/08/11 00:02:38;;;;;;;4.22;1.73;;;17.40;99.90;;;;;;5067942;28;20054;-81
2023/08/11 00:05:05;;;;;;;3.60;1.70;;;17.30;99.90;;;;;;5067010;28;20043;-81
2023/08/11 00:07:30;;;;;;;4.68;2.28;;;17.30;99.90;;;;;;5065741;28;20090;-81
2023/08/11 00:09:56;;;;;;;6.03;2.17;;;17.30;99.90;;;;;;5066306;28;20044;-82
2023/08/11 00:12:22;;;;;;;5.32;2.10;;;17.20;99.90;;;;;;5066127;28;20047;-82
2023/08/11 00:14:47;;;;;;;6.20;2.38;;;17.20;99.90;;;;;;5065532;28;20448;-81
2023/08/11 00:17:14;;;;;;;3.70;2.42;;;17.10;99.90;;;;;;5065021;28;20044;-81
2023/08/11 00:19:40;;;;;;;4.63;2.47;;;17.00;99.90;;;;;;5048792;28;20044;-81
2023/08/11 00:22:07;;;;;;;10.30;2.47;;;16.90;99.90;;;;;;5048206;28;20474;-82
2023/08/11 00:24:33;;;;;;;5.40;2.53;;;16.80;99.90;;;;;;5067259;28;20045;-81
2023/08/11 00:27:01;;;;;;;5.30;2.78;;;16.70;99.90;;;;;;5063519;28;20029;-81
2023/08/11 00:29:27;;;;;;;5.38;2.50;;;16.60;99.90;;;;;;5065538;28;20382;-81
2023/08/11 00:31:53;;;;;;;6.28;2.88;;;16.50;99.90;;;;;;5066158;28;20207;-81
2023/08/11 00:34:19;;;;;;;4.00;2.72;;;16.40;99.90;;;;;;5067050;28;20161;-81
2023/08/11 00:36:44;;;;;;;4.90;2.90;;;16.30;99.90;;;;;;5071679;28;20044;-81
2023/08/11 00:39:10;;;;;;;6.68;2.67;;;16.30;99.90;;;;;;5073615;28;20037;-81
2023/08/11 00:41:36;;;;;;;4.57;2.60;;;16.20;99.90;;;;;;5070406;28;20071;-81
2023/08/11 00:44:01;;;;;;;6.63;2.90;;;16.10;99.90;;;;;;5088891;28;20032;-81
2023/08/11 00:46:27;;;;;;;6.10;3.00;;;16.00;99.90;;;;;;5071097;28;20511;-81
2023/08/11 00:48:53;;;;;;;6.65;2.80;;;15.90;99.90;;;;;;5053972;28;20127;-81
2023/08/11 00:51:22;;;;;;;5.05;2.88;;;15.90;99.90;;;;;;5071977;28;20040;-81
2023/08/11 00:53:51;;;;;;;5.38;2.67;;;15.80;99.90;;;;;;5071313;28;20076;-81
2023/08/11 00:56:22;;;;;;;6.85;2.90;;;15.80;99.90;;;;;;5071176;28;20076;-82
2023/08/11 00:58:49;;;;;;;7.05;2.88;;;15.80;99.90;;;;;;5084060;28;20036;-81
2023/08/11 01:01:15;;;;;;;5.07;2.92;;;15.70;99.90;;;;;;5076844;28;20110;-82
2023/08/11 01:03:43;;;;;;;6.28;2.95;;;15.60;99.90;;;;;;5083130;28;20090;-81
2023/08/11 01:06:24;;;;;;;9.50;3.38;;;15.60;99.90;;;;;;5055380;28;20461;-81
2023/08/11 01:09:01;;;;;;;5.97;3.17;;;15.50;99.90;;;;;;5071440;28;20049;-82
2023/08/11 01:11:35;;;;;;;8.55;3.22;;;15.50;99.90;;;;;;5075257;28;20454;-81
2023/08/11 01:14:11;;;;;;;7.18;3.70;;;15.40;99.90;;;;;;5078389;28;20086;-81
2023/08/11 01:16:37;;;;;;;7.22;3.53;;;15.40;99.90;;;;;;5070867;28;20041;-81
2023/08/11 01:19:05;;;;;;;7.63;3.58;;;15.40;99.90;;;;;;5055293;28;20052;-82
2023/08/11 01:21:34;;;;;;;6.70;3.95;;;15.40;99.90;;;;;;5059029;28;20044;-81
2023/08/11 01:24:00;;;;;;;7.57;3.97;;;15.30;99.90;;;;;;5070512;28;20103;-81
2023/08/11 01:26:26;;;;;;;7.90;4.45;;;15.30;99.90;;;;;;5052175;28;20044;-82
2023/08/11 01:28:53;;;;;;;6.72;4.00;;;15.30;99.90;;;;;;5070832;28;20171;-81
2023/08/11 01:31:19;;;;;;;6.05;3.22;;;15.20;99.90;;;;;;5071088;28;20127;-81
2023/08/11 01:33:45;;;;;;;6.43;3.83;;;15.20;99.90;;;;;;5070534;28;20151;-82
2023/08/11 01:36:11;;;;;;;8.70;3.88;;;15.10;99.90;;;;;;5071646;28;20036;-81
2023/08/11 01:38:37;;;;;;;9.13;3.97;;;15.10;99.90;;;;;;5070707;28;20514;-81
2023/08/11 01:41:02;;;;;;;7.50;3.97;;;15.00;99.90;;;;;;5072415;28;20297;-81
2023/08/11 01:43:29;;;;;;;9.52;4.65;;;15.00;99.90;;;;;;5071940;28;20041;-81
2023/08/11 01:45:56;;;;;;;8.32;4.20;;;14.90;99.90;;;;;;5052455;28;20073;-81
2023/08/11 01:48:23;;;;;;;8.00;4.07;;;14.90;99.90;;;;;;5067786;28;20052;-81
2023/08/11 01:50:49;;;;;;;5.40;4.03;;;14.90;99.90;;;;;;5067604;28;20364;-81
2023/08/11 01:53:15;;;;;;;7.85;4.85;;;14.90;99.90;;;;;;5067503;28;20045;-81
2023/08/11 01:55:42;;;;;;;8.75;4.60;;;14.90;99.90;;;;;;5067800;28;20090;-81
2023/08/11 01:58:08;;;;;;;6.18;4.35;;;14.80;99.90;;;;;;5067927;28;20048;-81
2023/08/11 02:00:34;;;;;;;6.53;4.93;;;14.80;99.90;;;;;;5068528;28;20048;-82
2023/08/11 02:02:59;;;;;;;7.93;4.55;;;14.80;99.90;;;;;;5066212;28;20063;-81
2023/08/11 02:05:25;;;;;;;6.90;4.43;;;14.70;99.90;;;;;;5068614;28;20041;-81
2023/08/11 02:07:52;;;;;;;9.10;4.90;;;14.70;99.90;;;;;;5050183;28;20064;-81
2023/08/11 02:10:18;;;;;;;7.68;4.78;;;14.70;99.90;;;;;;5067864;28;20037;-81
2023/08/11 02:12:43;;;;;;;9.32;4.97;;;14.70;99.90;;;;;;5066121;28;20041;-81
2023/08/11 02:15:12;;;;;;;8.10;5.40;;;14.70;99.90;;;;;;5069058;28;20049;-81
2023/08/11 02:17:38;;;;;;;8.63;5.90;;;14.70;99.90;;;;;;5068057;28;20068;-81
2023/08/11 02:20:38;;;;;;;7.45;5.28;;;14.70;99.90;;;;;;5070632;28;20573;-81
2023/08/11 02:22:59;;;;;;;6.38;4.47;;;14.70;99.90;;;;;;5063916;28;20094;-81
2023/08/11 02:25:25;;;;;;;10.02;4.90;;;14.60;99.90;;;;;;5080880;28;20107;-81
2023/08/11 02:27:51;;;;;;;8.10;5.53;;;14.60;99.90;;;;;;5076753;28;20814;-81
2023/08/11 02:30:18;;;;;;;9.52;6.40;;;14.60;99.90;;;;;;5084161;28;20086;-81
2023/08/11 02:32:47;;;;;;;12.52;7.32;;;14.60;99.90;;;;;;5077728;28;20029;-81
2023/08/11 02:35:14;;;;;;;9.25;6.60;;;14.60;99.90;;;;;;5065013;28;20101;-81
2023/08/11 02:37:43;;;;;;;10.82;7.78;;;14.60;99.90;;;;;;5080616;28;20139;-81
2023/08/11 02:40:10;;;;;;;9.55;7.15;;;14.60;99.90;;;;;;5084086;28;20131;-81
2023/08/11 02:42:43;;;;;;;12.55;9.07;;;14.60;99.90;;;;;;5081172;28;20056;-80
2023/08/11 02:45:10;;;;;;;13.57;9.43;;;14.60;99.90;;;;;;5073686;28;20450;-81
2023/08/11 02:47:36;;;;;;;13.32;8.30;;;14.60;99.90;;;;;;5067191;28;20114;-81
2023/08/11 02:50:04;;;;;;;11.82;8.80;;;14.60;99.90;;;;;;5068008;28;20037;-81
2023/08/11 02:52:30;;;;;;;10.55;9.23;;;14.50;99.90;;;;;;5067744;28;20040;-81
2023/08/11 02:54:55;;;;;;;12.85;10.00;;;14.50;99.90;;;;;;5065924;28;20511;-81
2023/08/11 02:57:21;;;;;;;13.52;10.82;;;14.60;99.90;;;;;;5066609;28;20041;-81
2023/08/11 02:59:49;;;;;;;15.88;11.23;;;14.70;99.90;;;;;;5064975;28;20051;-81
2023/08/11 03:02:16;;;;;;;13.90;11.30;;;14.70;99.90;;;;;;5065436;28;20230;-81
2023/08/11 03:04:43;;;;;;;14.85;10.98;;;14.70;99.90;;;;;;5067587;28;20052;-81
2023/08/11 03:07:09;;;;;;;14.65;11.07;;;14.70;99.90;;;;;;5060053;28;20036;-81
2023/08/11 03:09:35;;;;;;;18.25;11.57;;;14.80;99.90;;;;;;5069104;28;20057;-81
2023/08/11 03:12:01;;;;;;;14.55;10.63;;;14.80;99.90;;;;;;5067371;28;20804;-81
2023/08/11 03:14:27;;;;;;;12.95;10.98;;;14.80;99.90;;;;;;5068150;28;20572;-81
2023/08/11 03:16:53;;;;;;;14.68;12.10;;;14.80;99.90;;;;;;5065878;28;20040;-81
2023/08/11 03:19:19;;;;;;;17.33;11.45;;;14.80;99.90;;;;;;5050326;28;20073;-81
2023/08/11 03:21:46;;;;;;;14.15;11.15;;;14.90;99.90;;;;;;5067119;28;20531;-81
2023/08/11 03:24:12;;;;;;;14.93;11.32;;;14.90;99.90;;;;;;5066108;28;20070;-81
2023/08/11 03:26:38;;;;;;;18.70;11.55;;;14.90;99.90;;;;;;5065752;28;20048;-81
2023/08/11 03:29:03;;;;;;;13.88;11.02;;;14.80;99.90;;;;;;5066295;28;20067;-81
2023/08/11 03:31:29;;;;;;;14.35;11.52;;;14.80;99.90;;;;;;5066570;28;20040;-81
2023/08/11 03:33:55;;;;;;;13.88;10.85;;;14.90;99.90;;;;;;5065279;28;20179;-81
2023/08/11 03:36:21;;;;;;;17.65;11.68;;;14.90;99.90;;;;;;5067649;28;20044;-81
2023/08/11 03:38:48;;;;;;;12.27;10.00;;;14.90;99.90;;;;;;5065127;28;20055;-81
2023/08/11 03:41:14;;;;;;;19.27;11.13;;;14.80;99.90;;;;;;5049536;28;20127;-81
2023/08/11 03:43:39;;;;;;;15.57;10.77;;;14.80;99.90;;;;;;5066432;28;20054;-81
2023/08/11 03:46:05;;;;;;;15.32;11.02;;;14.90;99.90;;;;;;5047641;28;20370;-81
2023/08/11 03:48:31;;;;;;;14.55;10.88;;;14.80;99.90;;;;;;5066470;28;20064;-81
2023/08/11 03:51:01;;;;;;;19.27;10.85;;;14.80;99.90;;;;;;5065339;28;20535;-81
2023/08/11 03:53:27;;;;;;;14.88;10.55;;;14.80;99.90;;;;;;5067629;28;20041;-81
2023/08/11 03:55:53;;;;;;;17.30;10.73;;;14.80;99.90;;;;;;5050399;28;20445;-81
2023/08/11 03:58:21;;;;;;;13.32;10.70;;;14.80;99.90;;;;;;5065882;28;20888;-81
2023/08/11 04:00:50;;;;;;;13.35;10.48;;;14.90;99.90;;;;;;5065906;28;20121;-81
2023/08/11 04:03:15;;;;;;;16.52;9.93;;;14.80;99.90;;;;;;5065681;28;20114;-81
2023/08/11 04:05:41;;;;;;;16.33;10.23;;;14.80;99.90;;;;;;5064364;28;20041;-81
2023/08/11 04:08:07;;;;;;;15.23;9.48;;;14.80;99.90;;;;;;5078830;28;20070;-81
2023/08/11 04:10:36;;;;;;;13.48;9.73;;;14.80;99.90;;;;;;5048656;28;20468;-81
2023/08/11 04:13:03;;;;;;;12.93;8.15;;;14.80;99.90;;;;;;5064651;28;20438;-81
2023/08/11 04:15:31;;;;;;;16.90;9.60;;;14.80;99.90;;;;;;5064676;28;20343;-81
2023/08/11 04:17:56;;;;;;;14.07;9.00;;;14.80;99.90;;;;;;5062643;28;20123;-81
2023/08/11 04:20:22;;;;;;;16.90;9.00;;;14.80;99.90;;;;;;5065014;28;20133;-81
2023/08/11 04:22:48;;;;;;;13.30;8.82;;;14.80;99.90;;;;;;5067571;28;20128;-80
2023/08/11 04:25:14;;;;;;;13.60;9.18;;;14.80;99.90;;;;;;5064414;28;20047;-80
2023/08/11 04:27:40;;;;;;;15.00;9.25;;;14.80;99.90;;;;;;5045749;28;20045;-81
2023/08/11 04:30:08;;;;;;;11.85;8.77;;;14.80;99.90;;;;;;5064075;28;20499;-81
2023/08/11 04:32:34;;;;;;;13.68;8.43;;;14.90;99.90;;;;;;5062089;28;20048;-81
2023/08/11 04:35:00;;;;;;;13.68;8.07;;;14.90;99.90;;;;;;5062662;28;20113;-81
2023/08/11 04:37:26;;;;;;;12.00;8.88;;;14.90;99.90;;;;;;5063056;28;20044;-81
2023/08/11 04:39:52;;;;;;;11.57;8.45;;;14.90;99.90;;;;;;5063385;28;20455;-81
2023/08/11 04:42:19;;;;;;;13.50;8.48;;;15.00;99.90;;;;;;5062903;28;20041;-81
2023/08/11 04:44:44;;;;;;;13.75;8.35;;;15.00;99.90;;;;;;5066203;28;20423;-81
2023/08/11 04:47:10;;;;;;;14.25;7.88;;;15.00;99.90;;;;;;5065764;28;20052;-81
2023/08/11 04:49:36;;;;;;;12.55;9.18;;;15.10;99.90;;;;;;5065659;28;20040;-80
2023/08/11 04:52:01;;;;;;;13.50;8.00;;;15.10;99.90;;;;;;5065081;28;20334;-80
2023/08/11 04:54:27;;;;;;;11.25;8.40;;;15.20;99.90;;;;;;5066302;28;20158;-81
2023/08/11 04:56:53;;;;;;;15.10;8.25;;;15.20;99.90;;;;;;5064330;28;20036;-81
2023/08/11 04:59:20;;;;;;;14.25;8.48;;;15.30;99.90;;;;;;5066623;28;20040;-80
2023/08/11 05:01:45;;;;;;;14.00;8.15;;;15.30;99.90;;;;;;5063755;28;20065;-80
2023/08/11 05:04:11;;;;;;;17.27;8.15;;;15.30;99.90;;;;;;5066817;28;20257;-81
2023/08/11 05:06:37;;;;;;;14.88;8.00;;;15.40;99.90;;;;;;5066004;28;20040;-81
2023/08/11 05:09:03;;;;;;;11.57;7.82;;;15.40;99.90;;;;;;5064519;28;20063;-81
2023/08/11 05:11:29;;;;;;;11.02;8.50;;;15.40;99.90;;;;;;5050578;28;20040;-81
2023/08/11 05:13:55;;;;;;;13.18;7.50;;;15.50;99.90;;;;;;5064429;28;20059;-81
2023/08/11 05:16:22;;;;;;;19.52;8.57;;;15.50;99.90;;;;;;5065020;28;20033;-81
2023/08/11 05:18:47;;;;;;;10.88;7.53;;;15.60;99.90;;;;;;5047656;28;20044;-81
2023/08/11 05:21:13;;;;;;;16.17;7.50;;;15.60;99.90;;;;;;5066412;28;20036;-81
2023/08/11 05:23:39;;;;;;;12.73;7.85;;;15.70;99.90;;;;;;5069292;28;20048;-81
2023/08/11 05:26:05;;;;;;;10.48;6.82;;;15.80;99.90;;;;;;5051905;28;20123;-81
2023/08/11 05:28:31;;;;;;;11.15;6.72;;;15.80;99.90;;;;;;5070430;28;20465;-81
2023/08/11 05:30:57;;;;;;;12.75;7.15;;;15.90;99.90;;;;;;5066434;28;20566;-81
2023/08/11 05:33:24;;;;;;;10.00;6.90;;;15.90;99.90;;;;;;5069877;28;20105;-81
2023/08/11 05:35:51;;;;;;;11.82;7.20;;;16.00;99.90;;;;;;5067945;28;20044;-80
2023/08/11 05:38:21;;;;;;;9.90;6.78;;;16.10;99.90;;;;;;5070508;28;20052;-81
2023/08/11 05:40:47;;;;;;;14.00;6.72;;;16.20;99.90;;;;;;5079447;28;20115;-81
2023/08/11 05:43:13;;;;;;;10.23;7.05;;;16.20;99.90;;;;;;5079957;28;20131;-81
2023/08/11 05:45:39;;;;;;;7.80;6.32;;;16.30;99.90;;;;;;5067133;28;20040;-81
2023/08/11 05:48:05;;;;;;;9.93;6.20;;;16.40;99.90;;;;;;5076450;28;20052;-81
2023/08/11 05:50:31;;;;;;;9.48;6.50;;;16.50;99.90;;;;;;5074119;28;20471;-81
2023/08/11 05:52:56;;;;;;;12.85;6.78;;;16.50;99.90;;;;;;5068535;28;20123;-81
2023/08/11 05:55:23;;;;;;;11.52;6.72;;;16.70;99.90;;;;;;5077220;28;20068;-81
2023/08/11 05:57:49;;;;;;;8.70;6.00;;;16.70;99.90;;;;;;5074849;28;20051;-81
2023/08/11 06:00:18;;;;;;;12.82;6.13;;;16.80;99.90;;;;;;5072567;28;20068;-81
2023/08/11 06:02:47;;;;;;;8.50;5.75;;;16.90;99.90;;;;;;5072992;28;20059;-81
2023/08/11 06:05:12;;;;;;;15.82;6.13;;;16.90;99.90;;;;;;5069337;28;20123;-80
2023/08/11 06:07:39;;;;;;;7.18;5.22;;;17.00;99.90;;;;;;5068386;28;20132;-81
2023/08/11 06:10:05;;;;;;;9.93;5.75;;;17.10;99.90;;;;;;5070644;28;20137;-80
2023/08/11 06:12:32;;;;;;;10.07;5.53;;;17.20;99.90;;;;;;5069063;28;20435;-80
2023/08/11 06:14:58;;;;;;;10.52;5.57;;;17.30;99.90;;;;;;5070859;28;20905;-81
2023/08/11 06:17:24;;;;;;;9.75;5.13;;;17.40;99.90;;;;;;5096166;28;20061;-81
2023/08/11 06:19:50;;;;;;;9.88;5.10;;;17.50;99.90;;;;;;5067607;28;20040;-81
2023/08/11 06:22:16;;;;;;;6.95;4.50;;;17.60;99.90;;;;;;5086228;28;20036;-81
2023/08/11 06:24:41;;;;;;;7.78;4.78;;;17.70;99.90;;;;;;5082703;28;20499;-81
2023/08/11 06:27:09;;;;;;;8.70;4.60;;;17.80;99.90;;;;;;5079237;28;20714;-81
2023/08/11 06:29:35;;;;;;;9.00;4.15;;;17.80;99.90;;;;;;5067898;28;20129;-81
2023/08/11 06:32:01;;;;;;;9.43;4.63;;;17.90;99.90;;;;;;5067222;28;20443;-81
2023/08/11 06:34:27;;;;;;;9.75;4.88;;;18.00;99.90;;;;;;5062325;28;20035;-81
2023/08/11 06:36:53;;;;;;;10.32;4.95;;;18.10;99.90;;;;;;5076713;28;20396;-81
2023/08/11 06:39:19;;;;;;;10.02;4.50;;;18.20;99.90;;;;;;5071686;28;20101;-82
2023/08/11 06:41:45;;;;;;;8.95;4.70;;;18.30;99.90;;;;;;5077126;28;20166;-82
2023/08/11 06:44:11;;;;;;;8.48;4.07;;;18.40;99.90;;;;;;5056748;28;20582;-83
2023/08/11 06:46:39;;;;;;;10.52;4.15;;;18.50;99.90;;;;;;5076127;28;20520;-82
2023/08/11 06:49:06;;;;;;;10.10;4.00;;;18.60;99.90;;;;;;5069202;28;20053;-82
2023/08/11 06:51:32;;;;;;;7.30;4.40;;;18.70;99.90;;;;;;5074302;28;20450;-85
2023/08/11 06:53:58;;;;;;;8.38;3.90;;;18.70;99.90;;;;;;5054278;28;20040;-86
2023/08/11 06:56:24;;;;;;;11.95;4.20;;;18.90;99.90;;;;;;5061171;28;20403;-85
2023/08/11 06:58:51;;;;;;;7.15;3.50;;;18.90;99.90;;;;;;5081469;28;20132;-86
2023/08/11 07:01:17;;;;;;;7.78;4.00;;;19.00;99.90;;;;;;5065774;28;20105;-86
2023/08/11 07:03:44;;;;;;;6.60;3.10;;;19.10;99.90;;;;;;5080048;28;20041;-86
2023/08/11 07:06:10;;;;;;;6.72;3.35;;;19.20;99.90;;;;;;5068360;28;20048;-85
2023/08/11 07:08:36;;;;;;;12.32;3.58;;;19.30;99.90;;;;;;5063380;28;20050;-88
2023/08/11 07:11:02;;;;;;;7.97;3.72;;;19.30;99.90;;;;;;5071636;28;20041;-81
2023/08/11 07:13:28;;;;;;;8.85;3.35;;;19.40;99.90;;;;;;5067982;28;20135;-85
2023/08/11 07:15:57;;;;;;;6.43;3.20;;;19.60;99.90;;;;;;5064906;28;20597;-87
2023/08/11 07:18:27;;;;;;;10.93;3.50;;;19.60;99.90;;;;;;5043086;28;20102;-87
2023/08/11 07:20:53;;;;;;;5.85;3.22;;;19.80;99.90;;;;;;5048169;28;20040;-86
2023/08/11 07:23:19;;;;;;;8.32;3.30;;;19.90;99.90;;;;;;5056440;28;20041;-86
2023/08/11 07:25:44;;;;;;;8.40;3.05;;;20.00;99.90;;;;;;5047270;28;20132;-86
2023/08/11 07:28:10;;;;;;;8.55;3.50;;;20.10;99.90;;;;;;5039943;28;20492;-86
2023/08/11 07:30:36;;;;;;;6.70;3.10;;;20.10;99.90;;;;;;5061985;28;20343;-86
2023/08/11 07:33:02;;;;;;;6.85;3.10;;;20.20;99.90;;;;;;5046904;28;20047;-86
2023/08/11 07:35:28;;;;;;;8.35;3.45;;;20.40;99.90;;;;;;5051352;28;20605;-86
2023/08/11 07:37:55;;;;;;;4.88;3.00;;;20.50;99.90;;;;;;5054006;28;20120;-86
2023/08/11 07:40:21;;;;;;;7.15;3.33;;;20.50;99.90;;;;;;5063431;28;20131;-86
2023/08/11 07:42:47;;;;;;;8.77;3.00;;;20.60;99.90;;;;;;5064645;28;20047;-86
2023/08/11 07:45:13;;;;;;;11.93;3.13;;;20.70;99.90;;;;;;5053740;28;20114;-86
2023/08/11 07:47:39;;;;;;;9.80;2.83;;;20.80;99.90;;;;;;5069348;28;20040;-87
2023/08/11 07:50:06;;;;;;;6.60;2.88;;;20.90;99.90;;;;;;5076899;28;20051;-87
2023/08/11 07:52:32;;;;;;;6.05;2.80;;;21.00;99.90;;;;;;5047785;28;20376;-86
2023/08/11 07:54:58;;;;;;;7.30;2.63;;;21.10;99.90;;;;;;5069443;28;20464;-86
2023/08/11 07:57:24;;;;;;;9.90;2.97;;;21.20;99.90;;;;;;5056542;28;20119;-84
2023/08/11 07:59:50;;;;;;;10.48;2.72;;;21.20;99.90;;;;;;5066403;28;20056;-87
2023/08/11 08:02:16;;;;;;;5.53;2.50;;;21.30;99.90;;;;;;5073511;28;20044;-88
2023/08/11 08:04:42;;;;;;;5.32;2.78;;;21.40;99.90;;;;;;5063503;28;20044;-88
2023/08/11 08:07:08;;;;;;;6.05;2.92;;;21.40;99.90;;;;;;5053389;28;20040;-83
2023/08/11 08:09:34;;;;;;;9.07;2.65;;;21.50;99.90;;;;;;5061689;28;20045;-87
2023/08/11 08:12:01;;;;;;;5.13;2.50;;;21.50;99.90;;;;;;5074007;28;20067;-87
2023/08/11 08:14:27;;;;;;;5.85;2.60;;;21.70;99.90;;;;;;5049660;28;20044;-87
2023/08/11 08:16:53;;;;;;;6.35;2.90;;;21.80;99.90;;;;;;5064964;28;20135;-86
2023/08/11 08:19:20;;;;;;;7.25;3.22;;;21.80;99.90;;;;;;5049063;28;20127;-87
2023/08/11 08:21:46;;;;;;;5.93;2.65;;;21.90;99.90;;;;;;5066409;28;20085;-87
2023/08/11 08:24:14;;;;;;;6.60;2.60;;;22.00;99.90;;;;;;5066728;28;20036;-87
2023/08/11 08:26:40;;;;;;;7.63;3.05;;;22.10;99.90;;;;;;5063437;28;20098;-88
2023/08/11 08:29:06;;;;;;;5.97;3.08;;;22.20;99.90;;;;;;5054730;28;20259;-87
2023/08/11 08:31:33;;;;;;;4.72;2.30;;;22.30;99.90;;;;;;5048604;28;20040;-87
2023/08/11 08:33:59;;;;;;;5.95;2.75;;;22.40;99.90;;;;;;5066793;28;20135;-87
2023/08/11 08:36:25;;;;;;;5.13;3.00;;;22.50;99.90;;;;;;5067936;28;20063;-86
2023/08/11 08:38:51;;;;;;;6.03;2.92;;;22.50;99.90;;;;;;5065758;28;20506;-85
2023/08/11 08:41:20;;;;;;;7.35;2.92;;;22.60;99.90;;;;;;5064374;28;20135;-81
2023/08/11 08:43:47;;;;;;;7.00;3.25;;;22.70;99.90;;;;;;5065782;28;20536;-82
2023/08/11 08:46:16;;;;;;;9.32;3.60;;;22.80;99.90;;;;;;5064991;28;20037;-82
2023/08/11 08:48:54;;;;;;;7.38;2.83;;;22.80;99.90;;;;;;5079713;28;20143;-81
2023/08/11 08:51:20;;;;;;;9.82;3.47;;;22.80;99.90;;;;;;5064458;28;20072;-82
2023/08/11 08:53:46;;;;;;;9.65;3.00;;;22.90;99.90;;;;;;5051264;28;20087;-82
2023/08/11 08:56:12;;;;;;;13.38;3.53;;;22.90;99.90;;;;;;5066591;28;20043;-81
2023/08/11 08:58:38;;;;;;;8.00;3.33;;;23.00;99.90;;;;;;5074074;28;20071;-82
2023/08/11 09:01:06;;;;;;;10.43;3.00;;;23.00;99.90;;;;;;5084170;28;20594;-81
2023/08/11 09:03:33;;;;;;;9.05;3.60;;;23.10;99.90;;;;;;5066631;28;20049;-82
2023/08/11 09:05:59;;;;;;;7.30;3.00;;;23.20;99.90;;;;;;5050363;28;20443;-82
2023/08/11 09:08:25;;;;;;;6.15;3.05;;;23.30;99.90;;;;;;5051422;28;20139;-81
2023/08/11 09:10:50;;;;;;;11.90;3.60;;;23.30;99.90;;;;;;5068332;28;20067;-80
2023/08/11 09:13:16;;;;;;;7.75;2.88;;;23.30;99.90;;;;;;5069404;28;20080;-81
2023/08/11 09:15:44;;;;;;;7.60;2.97;;;23.40;99.90;;;;;;5067736;28;20052;-81
2023/08/11 09:18:16;;;;;;;8.45;3.17;;;23.50;99.90;;;;;;5068575;28;20075;-81
2023/08/11 09:20:45;;;;;;;5.43;2.80;;;23.60;99.90;;;;;;5051429;28;20049;-82
2023/08/11 09:23:10;;;;;;;8.30;2.60;;;23.60;99.90;;;;;;5070275;28;20072;-81
2023/08/11 09:25:37;;;;;;;6.57;2.80;;;23.70;99.90;;;;;;5067405;28;20532;-81
2023/08/11 09:28:03;;;;;;;9.18;2.63;;;23.70;99.90;;;;;;5069000;28;20054;-81
2023/08/11 09:30:31;;;;;;;8.13;2.72;;;23.80;99.90;;;;;;5067468;28;20040;-81
2023/08/11 09:33:00;;;;;;;7.10;2.20;;;23.90;99.90;;;;;;5051079;28;20047;-81
2023/08/11 09:35:26;;;;;;;7.68;2.60;;;23.90;99.90;;;;;;5069775;28;20052;-83
2023/08/11 09:37:53;;;;;;;6.43;2.95;;;24.00;99.90;;;;;;5084183;28;20047;-82
2023/08/11 09:40:21;;;;;;;4.68;2.08;;;24.00;99.90;;;;;;5080131;28;20044;-82
2023/08/11 09:42:47;;;;;;;6.43;2.40;;;24.00;99.90;;;;;;5070186;28;20129;-82
2023/08/11 09:45:13;;;;;;;7.68;2.45;;;24.10;99.90;;;;;;5073260;28;20081;-82
2023/08/11 09:47:39;;;;;;;5.97;2.40;;;24.20;99.90;;;;;;5050787;28;20052;-83
2023/08/11 09:50:05;;;;;;;5.22;2.55;;;24.20;99.90;;;;;;5068169;28;20102;-82
2023/08/11 09:52:37;;;;;;;12.25;2.58;;;24.20;99.90;;;;;;5077155;28;20048;-83
2023/08/11 09:55:06;;;;;;;6.55;2.50;;;24.30;99.90;;;;;;5077697;28;20056;-82
2023/08/11 09:57:35;;;;;;;7.95;2.17;;;24.30;99.90;;;;;;5075629;28;20567;-83
2023/08/11 10:00:01;;;;;;;5.55;2.42;;;24.40;99.90;;;;;;5071645;28;20094;-83
2023/08/11 10:02:30;;;;;;;5.15;2.40;;;24.40;99.90;;;;;;5084409;28;20448;-82
2023/08/11 10:05:06;;;;;;;6.75;2.15;;;24.50;99.90;;;;;;5069216;28;20036;-81
2023/08/11 10:07:34;;;;;;;5.72;2.42;;;24.60;99.90;;;;;;5085945;28;20109;-82
2023/08/11 10:10:17;;;;;;;4.43;1.90;;;24.60;99.90;;;;;;5084054;28;20031;-81
2023/08/11 10:12:48;;;;;;;8.00;2.17;;;24.70;99.90;;;;;;5071934;28;20048;-82
2023/08/11 10:15:18;;;;;;;5.65;1.95;;;24.80;99.90;;;;;;5065277;28;20130;-83
2023/08/11 10:17:45;;;;;;;6.47;2.08;;;25.00;99.90;;;;;;5082726;28;20036;-83
2023/08/11 10:20:11;;;;;;;7.50;2.20;;;25.10;99.90;;;;;;5051410;28;20131;-83
2023/08/11 10:22:37;;;;;;;4.43;1.90;;;25.10;99.90;;;;;;5068986;28;20464;-83
2023/08/11 10:25:04;;;;;;;6.25;1.90;;;25.30;99.90;;;;;;5068544;28;20507;-84
2023/08/11 10:27:31;;;;;;;5.75;2.05;;;25.40;99.90;;;;;;5051219;28;20075;-83
2023/08/11 10:29:57;;;;;;;6.20;2.22;;;25.50;99.90;;;;;;5077239;28;20399;-82
2023/08/11 10:32:23;;;;;;;8.23;2.25;;;25.60;99.90;;;;;;5067883;28;20032;-83
2023/08/11 10:34:52;;;;;;;7.55;2.28;;;25.60;99.90;;;;;;5073515;28;20052;-84
2023/08/11 10:37:18;;;;;;;4.75;1.90;;;25.70;99.90;;;;;;5066241;28;20186;-83
2023/08/11 10:39:43;;;;;;;7.57;2.08;;;25.80;99.90;;;;;;5059873;28;20551;-84
2023/08/11 10:42:13;;;;;;;4.72;1.80;;;25.80;99.90;;;;;;5080958;28;20692;-84
2023/08/11 10:44:46;;;;;;;6.18;1.75;;;25.80;99.90;;;;;;5085916;28;20063;-84
2023/08/11 10:47:11;;;;;;;;;;;25.80;99.90;;;;;;5084018;28;20039;-82
2023/08/11 10:49:41;;;;;;;5.47;2.17;;;25.70;99.90;;;;;;5055997;28;19924;-84
2023/08/11 10:52:07;;;;;;;4.72;1.75;;;25.70;99.90;;;;;;5064728;28;20040;-84
2023/08/11 10:54:34;;;;;;;4.65;1.67;;;25.50;99.90;;;;;;5055564;28;20515;-84
2023/08/11 10:57:01;;;;;;;8.90;1.80;;;25.50;99.90;;;;;;5068190;28;20048;-84
2023/08/11 10:59:32;;;;;;;7.32;1.88;;;25.50;99.90;;;;;;5071809;28;20499;-84
2023/08/11 11:02:01;;;;;;;5.97;1.83;;;25.60;99.90;;;;;;5062648;28;20371;-83
2023/08/11 11:04:32;;;;;;;5.20;1.95;;;25.50;99.90;;;;;;5069521;28;20048;-84
2023/08/11 11:06:59;;;;;;;3.78;1.48;;;25.60;99.90;;;;;;5068006;28;20511;-84
2023/08/11 11:09:27;;;;;;;5.63;1.65;;;25.70;99.90;;;;;;5055054;28;20036;-85
2023/08/11 11:11:53;;;;;;;9.30;1.88;;;25.80;99.90;;;;;;5065628;28;20048;-85
2023/08/11 11:14:19;;;;;;;4.30;1.67;;;25.80;99.90;;;;;;5064889;28;20565;-82
2023/08/11 11:16:46;;;;;;;6.07;1.55;;;25.90;99.90;;;;;;5064803;28;20037;-83
2023/08/11 11:19:11;;;;;;;5.85;1.83;;;26.00;99.90;;;;;;5066441;28;20102;-82
2023/08/11 11:21:40;;;;;;;4.85;1.77;;;26.00;99.90;;;;;;5048858;28;20543;-83
2023/08/11 11:24:06;;;;;;;4.03;1.80;;;26.00;99.90;;;;;;5064270;28;20469;-82
2023/08/11 11:26:32;;;;;;;5.30;1.92;;;26.20;99.90;;;;;;5060948;28;20044;-83
2023/08/11 11:29:00;;;;;;;5.32;1.95;;;26.20;99.90;;;;;;5061465;28;20143;-83
2023/08/11 11:31:29;;;;;;;5.43;1.65;;;26.30;99.90;;;;;;5062671;28;20416;-82
2023/08/11 11:33:55;;;;;;;4.72;1.77;;;26.30;99.90;;;;;;5062821;28;20040;-82
2023/08/11 11:36:22;;;;;;;4.60;1.63;;;26.30;99.90;;;;;;5062157;28;20362;-82
2023/08/11 11:38:49;;;;;;;9.02;2.22;;;26.30;99.90;;;;;;5063806;28;20037;-82
2023/08/11 11:41:19;;;;;;;4.22;1.63;;;26.30;99.90;;;;;;5062676;28;20025;-82
2023/08/11 11:43:47;;;;;;;4.93;1.70;;;26.30;99.90;;;;;;5059538;28;20043;-82
2023/08/11 11:46:14;;;;;;;6.97;1.88;;;26.30;99.90;;;;;;5083413;28;20085;-82
2023/08/11 11:48:50;;;;;;;7.20;2.03;;;26.40;99.90;;;;;;5082701;28;21026;-82
2023/08/11 11:51:18;;;;;;;6.38;1.88;;;26.50;99.90;;;;;;5067331;28;20067;-82
2023/08/11 11:53:45;;;;;;;5.80;1.60;;;26.70;99.90;;;;;;5081987;28;20044;-82
2023/08/11 11:56:15;;;;;;;7.63;1.67;;;26.70;99.90;;;;;;5086315;28;20380;-82
2023/08/11 11:58:43;;;;;;;9.55;1.98;;;26.70;99.90;;;;;;5047490;28;20127;-82
2023/08/11 12:01:19;;;;;;;4.82;1.80;;;26.70;99.90;;;;;;5078997;28;20566;-83
2023/08/11 12:03:49;;;;;;;13.32;2.10;;;26.80;99.90;;;;;;5066290;28;20048;-83
2023/08/11 12:06:18;;;;;;;8.75;2.00;;;26.80;99.90;;;;;;5062216;28;20116;-83
2023/08/11 12:08:44;;;;;;;7.72;1.88;;;26.80;99.90;;;;;;5062972;28;20091;-83
2023/08/11 12:11:11;;;;;;;4.38;1.58;;;26.90;99.90;;;;;;5064004;28;20036;-82
2023/08/11 12:13:39;;;;;;;4.65;1.52;;;26.90;99.90;;;;;;5063122;28;20480;-82
2023/08/11 12:16:07;;;;;;;5.13;1.88;;;26.80;99.90;;;;;;5064108;28;20481;-82
2023/08/11 12:18:33;;;;;;;9.43;1.95;;;26.90;99.90;;;;;;5061699;28;20420;-83
2023/08/11 12:21:00;;;;;;;8.57;2.15;;;26.90;99.90;;;;;;5068429;28;20514;-83
2023/08/11 12:23:27;;;;;;;5.65;1.80;;;27.00;99.90;;;;;;5064238;28;20119;-83
2023/08/11 12:25:52;;;;;;;10.50;2.65;;;27.10;99.90;;;;;;5057666;28;20044;-83
2023/08/11 12:28:19;;;;;;;5.35;1.65;;;27.10;99.90;;;;;;5063359;28;20039;-83
2023/08/11 12:30:46;;;;;;;3.63;1.73;;;27.20;99.90;;;;;;5064695;28;20127;-83
2023/08/11 12:33:11;;;;;;;7.63;2.38;;;27.30;99.90;;;;;;5064345;28;20040;-83
2023/08/11 12:35:37;;;;;;;7.22;1.70;;;27.20;99.90;;;;;;5067583;28;20055;-83
2023/08/11 12:38:04;;;;;;;5.53;1.83;;;27.10;99.90;;;;;;5057563;28;20040;-82
2023/08/11 12:40:30;;;;;;;7.38;1.92;;;27.10;99.90;;;;;;5074285;28;20048;-82